createdAt,value
2023-05-05T00:02:07.762Z,64.07
2023-05-05T00:07:06.656Z,64.66
2023-05-05T00:12:05.857Z,66.20
2023-05-05T00:17:05.297Z,63.66
2023-05-05T00:22:04.183Z,63.94
2023-05-05T00:27:03.476Z,63.33
2023-05-05T00:32:02.340Z,64.15
2023-05-05T00:37:01.657Z,64.77
2023-05-05T00:42:00.634Z,64.32
2023-05-05T00:46:59.394Z,64.84
2023-05-05T00:51:58.994Z,65.09
2023-05-05T00:56:57.851Z,67.16
2023-05-05T01:01:57.075Z,66.70
2023-05-05T01:07:14.801Z,66.31
2023-05-05T01:12:33.822Z,67.77
2023-05-05T01:17:42.657Z,68.25
2023-05-05T01:22:53.223Z,66.92
2023-05-05T01:28:18.361Z,66.55
2023-05-05T01:33:24.780Z,67.23
2023-05-05T01:38:32.410Z,66.64
2023-05-05T01:43:35.754Z,66.28
2023-05-05T01:48:35.063Z,65.91
2023-05-05T01:53:35.347Z,64.74
2023-05-05T01:58:35.615Z,65.21
2023-05-05T02:03:37.767Z,64.97
2023-05-05T02:08:38.179Z,65.39
2023-05-05T02:13:39.484Z,65.24
2023-05-05T02:18:38.921Z,65.36
2023-05-05T02:23:38.623Z,65.25
2023-05-05T02:28:48.834Z,65.19
2023-05-05T02:33:49.585Z,64.13
2023-05-05T02:38:53.466Z,64.91
2023-05-05T02:43:55.252Z,65.30
2023-05-05T02:48:54.844Z,65.13
2023-05-05T02:53:53.745Z,64.91
2023-05-05T02:58:57.072Z,64.91
2023-05-05T03:04:11.600Z,65.31
2023-05-05T03:09:25.793Z,63.87
2023-05-05T03:14:33.255Z,65.09
2023-05-05T03:19:34.592Z,65.26
2023-05-05T03:24:33.556Z,65.10
2023-05-05T03:29:37.253Z,65.96
2023-05-05T03:34:40.018Z,66.19
2023-05-05T03:39:38.797Z,66.38
2023-05-05T03:44:39.092Z,67.17
2023-05-05T03:49:38.424Z,66.79
2023-05-05T03:54:37.651Z,66.62
2023-05-05T03:59:36.497Z,65.17
2023-05-05T04:04:35.786Z,65.28
2023-05-05T04:09:35.108Z,64.00
2023-05-05T04:14:34.125Z,65.20
2023-05-05T04:19:33.840Z,63.83
2023-05-05T04:24:34.690Z,78.14
2023-05-05T04:29:33.922Z,64.57
2023-05-05T04:34:33.297Z,57.47
2023-05-05T04:39:32.768Z,56.37
2023-05-05T04:44:32.213Z,55.93
2023-05-05T04:49:31.634Z,54.94
2023-05-05T04:54:30.704Z,54.36
2023-05-05T04:59:30.064Z,54.52
2023-05-05T05:04:29.267Z,56.67
2023-05-05T05:09:28.252Z,58.06
2023-05-05T05:14:28.216Z,57.89
2023-05-05T05:19:27.255Z,59.63
2023-05-05T05:24:26.320Z,59.81
2023-05-05T05:29:27.147Z,59.41
2023-05-05T05:34:26.917Z,60.02
2023-05-05T05:39:26.695Z,59.83
2023-05-05T05:44:25.938Z,60.26
2023-05-05T05:49:24.698Z,59.06
2023-05-05T05:54:24.026Z,57.54
2023-05-05T05:59:23.079Z,57.18
2023-05-05T06:04:22.105Z,57.00
2023-05-05T06:09:21.023Z,57.95
2023-05-05T06:14:20.235Z,57.88
2023-05-05T06:19:20.110Z,56.59
2023-05-05T06:24:19.009Z,54.48
2023-05-05T06:29:18.421Z,52.78
2023-05-05T06:34:18.354Z,51.39
2023-05-05T06:39:17.107Z,51.80
2023-05-05T06:44:16.134Z,52.04
2023-05-05T06:49:14.995Z,51.51
2023-05-05T06:54:13.925Z,50.31
2023-05-05T06:59:12.653Z,49.38
2023-05-05T07:04:11.822Z,48.51
2023-05-05T07:09:10.806Z,48.53
2023-05-05T07:14:09.555Z,48.03
2023-05-05T07:19:08.586Z,46.60
2023-05-05T07:24:07.486Z,46.46
2023-05-05T07:29:07.186Z,46.22
2023-05-05T07:34:06.277Z,45.79
2023-05-05T07:39:07.598Z,44.99
2023-05-05T07:44:06.441Z,46.50
2023-05-05T07:49:05.220Z,44.40
2023-05-05T07:54:04.466Z,44.17
2023-05-05T07:59:03.661Z,43.59
2023-05-05T08:04:02.409Z,42.95
2023-05-05T08:09:01.918Z,42.93
2023-05-05T08:14:00.979Z,43.21
2023-05-05T08:18:59.848Z,41.22
2023-05-05T08:23:58.712Z,41.41
2023-05-05T08:29:00.799Z,41.74
2023-05-05T08:33:59.624Z,40.97
2023-05-05T08:38:58.653Z,40.63
2023-05-05T08:43:57.478Z,40.57
2023-05-05T08:48:57.746Z,40.34
2023-05-05T08:54:06.572Z,40.71
2023-05-05T08:59:05.573Z,40.24
2023-05-05T09:04:05.157Z,39.76
2023-05-05T09:09:04.162Z,37.23
2023-05-05T09:14:03.030Z,38.61
2023-05-05T09:19:03.515Z,39.39
2023-05-05T09:24:11.204Z,36.43
2023-05-05T09:29:10.193Z,37.15
2023-05-05T09:34:16.606Z,36.78
2023-05-05T09:39:20.212Z,35.35
2023-05-05T09:44:34.681Z,36.31
2023-05-05T09:49:33.760Z,33.97
2023-05-05T09:54:34.744Z,33.89
2023-05-05T09:59:33.676Z,34.50
2023-05-05T10:04:32.594Z,35.41
2023-05-05T10:09:32.879Z,31.57
2023-05-05T10:14:34.112Z,32.50
2023-05-05T10:19:35.898Z,30.50
2023-05-05T10:24:40.078Z,31.10
2023-05-05T10:29:40.659Z,30.34
2023-05-05T10:34:53.447Z,31.42
2023-05-05T10:39:53.392Z,30.70
2023-05-05T10:44:52.327Z,30.39
2023-05-05T10:50:04.210Z,29.91
2023-05-05T10:55:13.163Z,31.21
2023-05-05T11:00:41.288Z,30.15
2023-05-05T11:06:06.225Z,31.45
2023-05-05T11:11:06.100Z,29.36
2023-05-05T11:16:05.671Z,29.84
2023-05-05T11:21:15.488Z,29.90
2023-05-05T11:26:15.643Z,30.86
2023-05-05T11:31:18.916Z,29.04
2023-05-05T11:36:19.981Z,29.08
2023-05-05T11:41:40.612Z,27.75
2023-05-05T11:46:41.071Z,29.04
2023-05-05T11:51:40.130Z,28.64
2023-05-05T11:56:50.568Z,30.08
2023-05-05T12:01:49.284Z,29.79
2023-05-05T12:06:49.246Z,29.49
2023-05-05T12:12:00.927Z,31.04
2023-05-05T12:17:09.720Z,30.15
2023-05-05T12:22:08.577Z,29.34
2023-05-05T12:27:11.794Z,28.95
2023-05-05T12:32:23.588Z,27.82
2023-05-05T12:37:26.345Z,28.71
2023-05-05T12:42:25.380Z,28.34
2023-05-05T12:47:32.533Z,27.88
2023-05-05T12:52:44.939Z,28.06
2023-05-05T12:58:04.690Z,28.23
2023-05-05T13:03:04.940Z,26.69
2023-05-05T13:08:04.264Z,28.06
2023-05-05T13:13:04.932Z,26.62
2023-05-05T13:18:03.947Z,27.92
2023-05-05T13:23:02.681Z,25.99
2023-05-05T13:28:01.461Z,25.73
2023-05-05T13:33:00.283Z,26.59
2023-05-05T13:37:59.141Z,25.70
2023-05-05T13:42:58.270Z,26.43
2023-05-05T13:47:57.295Z,26.56
2023-05-05T13:52:56.410Z,27.00
2023-05-05T13:57:55.287Z,29.55
2023-05-05T14:02:54.308Z,28.02
2023-05-05T14:07:54.427Z,28.70
2023-05-05T14:12:56.646Z,28.53
2023-05-05T14:17:56.177Z,28.72
2023-05-05T14:22:55.273Z,29.32
2023-05-05T14:27:55.792Z,28.91
2023-05-05T14:32:54.598Z,31.00
2023-05-05T14:37:53.415Z,29.41
2023-05-05T14:42:52.283Z,29.07
2023-05-05T14:47:51.169Z,28.65
2023-05-05T14:52:49.978Z,29.61
2023-05-05T14:57:48.917Z,29.52
2023-05-05T15:02:48.420Z,29.45
2023-05-05T15:07:47.787Z,28.75
2023-05-05T15:12:46.773Z,28.29
2023-05-05T15:17:45.847Z,29.34
2023-05-05T15:22:44.760Z,28.72
2023-05-05T15:27:43.621Z,28.46
2023-05-05T15:32:42.596Z,29.57
2023-05-05T15:37:42.605Z,27.81
2023-05-05T15:42:41.582Z,28.30
2023-05-05T15:47:40.842Z,27.48
2023-05-05T15:52:39.931Z,27.33
2023-05-05T15:57:41.721Z,30.48
2023-05-05T16:02:40.710Z,29.64
2023-05-05T16:07:39.736Z,30.76
2023-05-05T16:12:38.598Z,30.55
2023-05-05T16:17:37.813Z,30.64
2023-05-05T16:22:37.055Z,31.25
2023-05-05T16:27:36.003Z,31.69
2023-05-05T16:32:34.956Z,33.40
2023-05-05T16:37:33.811Z,32.44
2023-05-05T16:42:32.513Z,31.46
2023-05-05T16:47:31.366Z,31.93
2023-05-05T16:52:30.341Z,33.04
2023-05-05T16:57:29.491Z,34.04
2023-05-05T17:02:28.590Z,33.71
2023-05-05T17:07:27.796Z,33.21
2023-05-05T17:12:26.588Z,34.38
2023-05-05T17:17:25.464Z,33.71
2023-05-05T17:22:24.382Z,34.68
2023-05-05T17:27:23.205Z,34.66
2023-05-05T17:32:22.340Z,34.70
2023-05-05T17:37:21.236Z,35.00
2023-05-05T17:42:22.996Z,35.36
2023-05-05T17:47:22.572Z,35.15
2023-05-05T17:52:22.688Z,35.29
2023-05-05T17:57:21.514Z,35.40
2023-05-05T18:02:20.500Z,35.68
2023-05-05T18:07:19.654Z,36.31
2023-05-05T18:12:18.434Z,36.72
2023-05-05T18:17:17.162Z,37.86
2023-05-05T18:22:16.039Z,38.67
2023-05-05T18:27:14.935Z,39.67
2023-05-05T18:32:13.771Z,40.94
2023-05-05T18:37:12.683Z,41.18
2023-05-05T18:42:13.004Z,41.51
2023-05-05T18:47:12.034Z,41.66
2023-05-05T18:52:10.888Z,42.26
2023-05-05T18:57:09.979Z,42.21
2023-05-05T19:02:09.073Z,41.89
2023-05-05T19:07:07.886Z,41.89
2023-05-05T19:12:06.865Z,42.63
2023-05-05T19:17:05.938Z,43.25
2023-05-05T19:22:04.852Z,42.59
2023-05-05T19:27:04.098Z,43.35
2023-05-05T19:32:02.921Z,43.86
2023-05-05T19:37:01.878Z,43.44
2023-05-05T19:42:01.133Z,43.56
2023-05-05T19:47:00.126Z,44.50
2023-05-05T19:51:59.100Z,43.79
2023-05-05T19:56:57.904Z,43.72
2023-05-05T20:01:56.940Z,44.09
2023-05-05T20:06:55.721Z,44.03
2023-05-05T20:11:55.520Z,44.24
2023-05-05T20:16:54.560Z,44.51
2023-05-05T20:21:53.402Z,44.71
2023-05-05T20:26:52.191Z,44.95
2023-05-05T20:31:50.952Z,45.85
2023-05-05T20:36:49.788Z,48.67
2023-05-05T20:41:49.045Z,47.50
2023-05-05T20:46:47.837Z,52.89
2023-05-05T20:51:46.759Z,50.45
2023-05-05T20:56:45.592Z,52.70
2023-05-05T21:01:44.418Z,50.69
2023-05-05T21:06:43.195Z,51.59
2023-05-05T21:11:43.628Z,49.24
2023-05-05T21:16:42.879Z,49.08
2023-05-05T21:21:41.771Z,48.84
2023-05-05T21:26:44.344Z,49.38
2023-05-05T21:31:43.070Z,49.48
2023-05-05T21:36:41.803Z,49.09
2023-05-05T21:41:40.657Z,50.43
2023-05-05T21:46:39.640Z,53.17
2023-05-05T21:51:38.464Z,56.63
2023-05-05T21:56:37.526Z,55.08
2023-05-05T22:01:36.963Z,56.00
2023-05-05T22:06:35.765Z,55.33
2023-05-05T22:11:34.596Z,54.18
2023-05-05T22:16:33.416Z,53.76
2023-05-05T22:21:32.398Z,53.41
2023-05-05T22:26:31.178Z,53.52
2023-05-05T22:31:30.829Z,54.27
2023-05-05T22:36:29.738Z,55.54
2023-05-05T22:41:28.475Z,56.68
2023-05-05T22:46:27.306Z,58.19
2023-05-05T22:51:26.141Z,58.37
2023-05-05T22:56:24.993Z,58.51
2023-05-05T23:01:24.054Z,59.16
2023-05-05T23:06:22.856Z,61.21
2023-05-05T23:11:21.722Z,63.67
2023-05-05T23:16:20.711Z,68.87
2023-05-05T23:21:19.682Z,72.65
2023-05-05T23:26:18.422Z,72.72
2023-05-05T23:31:17.388Z,77.00
2023-05-05T23:36:16.281Z,77.25
2023-05-05T23:41:15.060Z,76.98
2023-05-05T23:46:13.991Z,77.97
2023-05-05T23:51:12.834Z,80.20
2023-05-05T23:56:11.998Z,79.99
